createdAt,value
2023-09-06T00:00:40.553Z,7.00
2023-09-06T00:03:07.102Z,6.97
2023-09-06T00:05:33.551Z,6.50
2023-09-06T00:07:59.951Z,6.55
2023-09-06T00:10:26.419Z,6.70
2023-09-06T00:12:52.879Z,6.50
2023-09-06T00:15:19.875Z,6.60
2023-09-06T00:17:46.491Z,7.07
2023-09-06T00:20:22.072Z,6.60
2023-09-06T00:22:55.887Z,6.78
2023-09-06T00:25:22.638Z,7.00
2023-09-06T00:27:51.413Z,6.47
2023-09-06T00:30:21.344Z,6.70
2023-09-06T00:32:49.004Z,7.22
2023-09-06T00:35:17.725Z,6.75
2023-09-06T00:37:44.198Z,6.68
2023-09-06T00:40:20.416Z,6.75
2023-09-06T00:42:47.957Z,7.40
2023-09-06T00:45:14.479Z,7.28
2023-09-06T00:47:43.353Z,7.25
2023-09-06T00:50:12.361Z,7.15
2023-09-06T00:52:39.253Z,7.15
2023-09-06T00:55:06.245Z,7.10
2023-09-06T00:57:33.280Z,7.70
2023-09-06T01:00:00.593Z,6.85
2023-09-06T01:02:28.563Z,6.90
2023-09-06T01:04:55.039Z,7.45
2023-09-06T01:07:24.018Z,7.35
2023-09-06T01:09:50.820Z,7.32
2023-09-06T01:12:17.340Z,6.85
2023-09-06T01:14:46.203Z,7.22
2023-09-06T01:17:15.735Z,7.65
2023-09-06T01:19:45.106Z,7.30
2023-09-06T01:22:19.216Z,7.15
2023-09-06T01:24:46.989Z,7.47
2023-09-06T01:27:16.308Z,7.60
2023-09-06T01:29:42.875Z,7.40
2023-09-06T01:32:09.439Z,7.22
2023-09-06T01:34:35.979Z,6.63
2023-09-06T01:37:02.444Z,7.18
2023-09-06T01:39:28.869Z,6.85
2023-09-06T01:41:55.322Z,7.60
2023-09-06T01:44:21.834Z,7.20
2023-09-06T01:46:48.319Z,6.68
2023-09-06T01:49:14.864Z,7.05
2023-09-06T01:51:41.447Z,6.90
2023-09-06T01:54:08.437Z,7.40
2023-09-06T01:56:35.011Z,6.80
2023-09-06T01:59:01.462Z,7.22
2023-09-06T02:01:28.077Z,7.40
2023-09-06T02:03:55.675Z,9.75
2023-09-06T02:06:22.310Z,8.80
2023-09-06T02:08:50.353Z,9.60
2023-09-06T02:11:16.825Z,8.65
2023-09-06T02:13:43.222Z,8.15
2023-09-06T02:16:09.735Z,7.50
2023-09-06T02:18:36.231Z,7.43
2023-09-06T02:21:04.013Z,7.28
2023-09-06T02:23:30.397Z,7.07
2023-09-06T02:25:57.529Z,7.78
2023-09-06T02:28:24.044Z,7.30
2023-09-06T02:30:50.531Z,7.75
2023-09-06T02:33:17.249Z,7.57
2023-09-06T02:35:44.625Z,7.55
2023-09-06T02:38:11.882Z,7.22
2023-09-06T02:40:38.744Z,7.88
2023-09-06T02:43:06.009Z,10.45
2023-09-06T02:45:38.554Z,9.50
2023-09-06T02:48:08.446Z,8.18
2023-09-06T02:50:35.700Z,8.27
2023-09-06T02:53:03.490Z,8.15
2023-09-06T02:55:30.206Z,7.60
2023-09-06T02:57:56.705Z,7.82
2023-09-06T03:00:26.417Z,7.75
2023-09-06T03:02:57.020Z,8.35
2023-09-06T03:05:23.748Z,8.95
2023-09-06T03:07:50.545Z,8.38
2023-09-06T03:10:17.659Z,7.82
2023-09-06T03:12:45.121Z,9.45
2023-09-06T03:15:12.721Z,9.10
2023-09-06T03:17:39.335Z,9.95
2023-09-06T03:20:19.921Z,8.82
2023-09-06T03:22:52.860Z,8.20
2023-09-06T03:25:19.405Z,8.40
2023-09-06T03:27:46.119Z,8.77
2023-09-06T03:30:16.356Z,7.90
2023-09-06T03:32:49.667Z,8.27
2023-09-06T03:35:17.358Z,8.25
2023-09-06T03:37:44.836Z,8.18
2023-09-06T03:40:26.445Z,9.27
2023-09-06T03:42:54.314Z,10.70
2023-09-06T03:45:22.757Z,10.60
2023-09-06T03:47:49.941Z,10.38
2023-09-06T03:50:22.713Z,10.18
2023-09-06T03:52:49.272Z,10.07
2023-09-06T03:55:17.556Z,11.52
2023-09-06T03:57:44.126Z,10.70
2023-09-06T04:00:25.760Z,9.98
2023-09-06T04:02:55.276Z,9.52
2023-09-06T04:05:27.037Z,9.43
2023-09-06T04:07:58.008Z,10.75
2023-09-06T04:10:37.622Z,9.65
2023-09-06T04:13:08.607Z,9.23
2023-09-06T04:15:38.620Z,9.43
2023-09-06T04:18:06.574Z,10.00
2023-09-06T04:20:38.002Z,10.20
2023-09-06T04:23:06.640Z,9.55
2023-09-06T04:25:34.531Z,10.02
2023-09-06T04:28:01.580Z,10.25
2023-09-06T04:30:33.319Z,9.23
2023-09-06T04:32:59.887Z,9.82
2023-09-06T04:35:37.906Z,9.27
2023-09-06T04:38:04.520Z,9.00
2023-09-06T04:40:31.174Z,8.48
2023-09-06T04:42:57.706Z,9.52
2023-09-06T04:45:24.238Z,8.77
2023-09-06T04:47:50.681Z,8.10
2023-09-06T04:50:17.268Z,9.25
2023-09-06T04:52:47.988Z,10.77
2023-09-06T04:57:46.602Z,9.68
2023-09-06T05:00:25.047Z,10.57
2023-09-06T05:02:55.167Z,8.40
2023-09-06T05:07:49.656Z,8.93
2023-09-06T05:10:16.069Z,8.70
2023-09-06T05:12:42.801Z,8.60
2023-09-06T05:15:09.700Z,9.00
2023-09-06T05:17:36.446Z,10.65
2023-09-06T05:20:36.181Z,9.90
2023-09-06T05:23:06.518Z,8.90
2023-09-06T05:25:33.269Z,10.32
2023-09-06T05:28:06.968Z,9.13
2023-09-06T05:30:34.092Z,11.38
2023-09-06T05:33:00.579Z,9.98
2023-09-06T05:35:27.340Z,9.25
2023-09-06T05:37:53.922Z,8.25
2023-09-06T05:40:27.833Z,9.77
2023-09-06T05:42:54.596Z,9.45
2023-09-06T05:45:22.326Z,8.50
2023-09-06T05:47:51.680Z,8.40
2023-09-06T05:50:18.247Z,8.18
2023-09-06T05:52:45.294Z,7.75
2023-09-06T05:55:11.945Z,11.48
2023-09-06T05:57:39.055Z,8.45
2023-09-06T06:00:13.924Z,8.50
2023-09-06T06:02:41.047Z,8.40
2023-09-06T06:05:07.701Z,8.05
2023-09-06T06:07:34.109Z,7.07
2023-09-06T06:10:00.616Z,8.23
2023-09-06T06:12:27.168Z,7.15
2023-09-06T06:14:53.724Z,7.60
2023-09-06T06:17:20.363Z,7.45
2023-09-06T06:19:48.238Z,10.68
2023-09-06T06:22:14.819Z,7.82
2023-09-06T06:24:43.545Z,9.27
2023-09-06T06:27:10.226Z,7.70
2023-09-06T06:29:36.955Z,6.72
2023-09-06T06:32:03.727Z,7.00
2023-09-06T06:34:30.400Z,7.15
2023-09-06T06:36:56.890Z,6.90
2023-09-06T06:39:23.333Z,9.10
2023-09-06T06:41:49.776Z,8.30
2023-09-06T06:44:16.352Z,7.55
2023-09-06T06:46:43.913Z,7.72
2023-09-06T06:49:10.503Z,7.38
2023-09-06T06:51:43.153Z,6.93
2023-09-06T06:54:10.419Z,7.68
2023-09-06T06:56:37.683Z,7.72
2023-09-06T06:59:04.690Z,8.30
2023-09-06T07:01:32.262Z,6.70
2023-09-06T07:03:59.030Z,7.38
2023-09-06T07:06:26.031Z,9.57
2023-09-06T07:08:53.520Z,7.00
2023-09-06T07:11:20.305Z,7.70
2023-09-06T07:13:47.393Z,7.15
2023-09-06T07:16:14.490Z,7.85
2023-09-06T07:18:41.488Z,12.48
2023-09-06T07:21:08.108Z,7.78
2023-09-06T07:23:34.703Z,7.20
2023-09-06T07:26:01.294Z,7.15
2023-09-06T07:28:36.206Z,9.82
2023-09-06T07:31:02.764Z,8.00
2023-09-06T07:33:29.299Z,6.90
2023-09-06T07:35:55.770Z,7.65
2023-09-06T07:38:22.212Z,7.53
2023-09-06T07:40:56.340Z,7.65
2023-09-06T07:43:22.875Z,7.28
2023-09-06T07:45:49.361Z,9.02
2023-09-06T07:48:16.050Z,9.30
2023-09-06T07:50:42.576Z,8.35
2023-09-06T07:53:09.073Z,9.23
2023-09-06T07:55:35.622Z,8.25
2023-09-06T07:58:02.058Z,7.85
2023-09-06T08:00:29.760Z,7.95
2023-09-06T08:02:56.365Z,7.75
2023-09-06T08:05:23.009Z,8.82
2023-09-06T08:07:49.462Z,8.05
2023-09-06T08:10:15.869Z,7.47
2023-09-06T08:12:42.377Z,7.85
2023-09-06T08:15:09.448Z,7.40
2023-09-06T08:17:36.048Z,8.93
2023-09-06T08:20:02.514Z,7.45
2023-09-06T08:22:42.798Z,6.80
2023-09-06T08:25:11.254Z,7.00
2023-09-06T08:27:37.704Z,6.78
2023-09-06T08:30:05.797Z,7.18
2023-09-06T08:32:32.420Z,6.88
2023-09-06T08:34:59.701Z,6.88
2023-09-06T08:37:26.227Z,7.20
2023-09-06T08:39:52.683Z,6.95
2023-09-06T08:42:20.902Z,6.88
2023-09-06T08:44:49.432Z,6.28
2023-09-06T08:47:18.668Z,6.63
2023-09-06T08:49:47.238Z,6.20
2023-09-06T08:52:15.794Z,7.43
2023-09-06T08:54:45.216Z,7.30
2023-09-06T08:57:12.374Z,6.75
2023-09-06T08:59:39.115Z,7.30
2023-09-06T09:02:05.563Z,7.45
2023-09-06T09:04:32.437Z,8.32
2023-09-06T09:07:01.674Z,7.32
2023-09-06T09:09:28.221Z,7.00
2023-09-06T09:11:55.460Z,6.97
2023-09-06T09:14:26.023Z,6.93
2023-09-06T09:16:59.412Z,6.97
2023-09-06T09:19:26.478Z,7.10
2023-09-06T09:21:53.811Z,8.10
2023-09-06T09:24:27.852Z,7.78
2023-09-06T09:26:54.570Z,7.65
2023-09-06T09:29:21.077Z,7.97
2023-09-06T09:31:47.560Z,9.38
2023-09-06T09:34:14.036Z,8.20
2023-09-06T09:36:40.556Z,8.40
2023-09-06T09:39:14.692Z,8.77
2023-09-06T09:41:57.512Z,8.63
2023-09-06T09:44:26.196Z,8.73
2023-09-06T09:46:55.293Z,8.82
2023-09-06T09:49:21.847Z,8.65
2023-09-06T09:51:51.527Z,9.65
2023-09-06T09:54:18.546Z,7.72
2023-09-06T09:56:48.699Z,8.15
2023-09-06T09:59:16.482Z,7.75
2023-09-06T10:01:43.141Z,8.38
2023-09-06T10:04:13.107Z,8.48
2023-09-06T10:06:39.994Z,8.15
2023-09-06T10:09:13.685Z,8.60
2023-09-06T10:11:41.907Z,6.78
2023-09-06T10:14:09.549Z,7.72
2023-09-06T10:16:36.030Z,7.38
2023-09-06T10:19:02.574Z,7.32
2023-09-06T10:21:31.149Z,7.47
2023-09-06T10:23:59.374Z,8.27
2023-09-06T10:26:28.766Z,7.65
2023-09-06T10:28:58.931Z,6.60
2023-09-06T10:31:35.878Z,8.57
2023-09-06T10:34:02.697Z,6.25
2023-09-06T10:36:29.520Z,6.28
2023-09-06T10:38:56.832Z,6.45
2023-09-06T10:41:23.786Z,6.55
2023-09-06T10:43:50.155Z,6.53
2023-09-06T10:46:19.631Z,6.97
2023-09-06T10:49:05.122Z,7.68
2023-09-06T10:51:31.567Z,6.47
2023-09-06T10:53:58.092Z,7.03
2023-09-06T10:56:30.983Z,6.22
2023-09-06T10:58:58.520Z,7.40
2023-09-06T11:01:26.451Z,6.72
2023-09-06T11:03:53.224Z,7.00
2023-09-06T11:06:22.800Z,6.63
2023-09-06T11:08:49.414Z,6.82
2023-09-06T11:11:16.129Z,6.65
2023-09-06T11:13:43.314Z,7.68
2023-09-06T11:16:14.130Z,6.40
2023-09-06T11:18:45.275Z,6.20
2023-09-06T11:21:15.632Z,6.35
2023-09-06T11:23:45.634Z,6.45
2023-09-06T11:26:12.058Z,5.97
2023-09-06T11:28:39.632Z,5.72
2023-09-06T11:31:06.531Z,6.45
2023-09-06T11:33:33.242Z,5.78
2023-09-06T11:36:04.408Z,5.50
2023-09-06T11:38:35.870Z,7.22
2023-09-06T11:41:05.053Z,6.25
2023-09-06T11:43:32.654Z,7.35
2023-09-06T11:46:05.932Z,6.10
2023-09-06T11:48:33.295Z,6.20
2023-09-06T11:51:09.418Z,6.00
2023-09-06T11:53:39.860Z,6.03
2023-09-06T11:56:09.901Z,7.65
2023-09-06T11:58:49.172Z,5.82
2023-09-06T12:01:22.509Z,5.97
2023-09-06T12:03:49.130Z,4.90
2023-09-06T12:06:16.766Z,5.38
2023-09-06T12:08:44.256Z,6.03
2023-09-06T12:11:14.968Z,5.70
2023-09-06T12:13:41.919Z,5.68
2023-09-06T12:16:09.534Z,6.63
2023-09-06T12:18:37.160Z,5.70
2023-09-06T12:21:04.722Z,5.75
2023-09-06T12:23:31.580Z,6.18
2023-09-06T12:25:58.857Z,5.45
2023-09-06T12:28:25.639Z,5.50
2023-09-06T12:30:56.139Z,6.20
2023-09-06T12:33:25.909Z,5.80
2023-09-06T12:36:00.082Z,5.68
2023-09-06T12:38:27.561Z,5.78
2023-09-06T12:40:54.473Z,6.68
2023-09-06T12:43:22.193Z,5.60
2023-09-06T12:45:49.986Z,5.40
2023-09-06T12:48:16.913Z,5.32
2023-09-06T12:50:43.460Z,5.30
2023-09-06T12:53:10.045Z,9.98
2023-09-06T12:55:37.032Z,6.50
2023-09-06T12:58:06.714Z,5.32
2023-09-06T13:00:33.891Z,5.70
2023-09-06T13:03:02.076Z,5.20
2023-09-06T13:05:29.222Z,5.50
2023-09-06T13:07:55.849Z,5.45
2023-09-06T13:10:22.266Z,4.80
2023-09-06T13:12:48.733Z,5.05
2023-09-06T13:15:15.238Z,4.78
2023-09-06T13:17:41.701Z,5.90
2023-09-06T13:20:12.000Z,5.40
2023-09-06T13:22:39.132Z,5.90
2023-09-06T13:25:07.383Z,4.82
2023-09-06T13:27:34.528Z,5.90
2023-09-06T13:30:01.168Z,4.82
2023-09-06T13:32:27.584Z,4.50
2023-09-06T13:34:55.594Z,5.00
2023-09-06T13:37:22.432Z,6.03
2023-09-06T13:39:48.978Z,5.47
2023-09-06T13:42:16.448Z,5.05
2023-09-06T13:44:43.013Z,4.47
2023-09-06T13:47:10.955Z,4.90
2023-09-06T13:49:37.584Z,5.75
2023-09-06T13:52:05.875Z,5.40
2023-09-06T13:54:33.640Z,5.03
2023-09-06T13:57:00.082Z,4.63
2023-09-06T13:59:26.753Z,5.32
2023-09-06T14:01:53.457Z,4.78
2023-09-06T14:04:20.373Z,5.05
2023-09-06T14:06:47.035Z,4.68
2023-09-06T14:09:13.480Z,4.68
2023-09-06T14:11:39.948Z,5.50
2023-09-06T14:14:07.147Z,4.95
2023-09-06T14:16:33.661Z,5.22
2023-09-06T14:19:00.754Z,5.35
2023-09-06T14:21:27.197Z,5.00
2023-09-06T14:23:53.864Z,4.60
2023-09-06T14:26:20.358Z,5.50
2023-09-06T14:28:47.177Z,4.75
2023-09-06T14:31:13.779Z,4.85
2023-09-06T14:33:40.638Z,4.72
2023-09-06T14:36:07.686Z,5.07
2023-09-06T14:38:34.603Z,4.75
2023-09-06T14:41:01.352Z,4.28
2023-09-06T14:43:28.735Z,3.90
2023-09-06T14:46:02.126Z,5.03
2023-09-06T14:48:28.577Z,3.90
2023-09-06T14:50:59.029Z,4.07
2023-09-06T14:53:25.478Z,4.35
2023-09-06T14:55:52.278Z,4.28
2023-09-06T14:58:18.757Z,4.97
2023-09-06T15:00:45.378Z,4.07
2023-09-06T15:03:11.948Z,6.05
2023-09-06T15:05:41.791Z,5.10
2023-09-06T15:08:08.567Z,4.30
2023-09-06T15:10:34.962Z,5.45
2023-09-06T15:13:01.507Z,4.85
2023-09-06T15:15:27.934Z,4.70
2023-09-06T15:17:55.107Z,4.82
2023-09-06T15:20:23.037Z,5.65
2023-09-06T15:22:49.428Z,4.90
2023-09-06T15:25:16.239Z,4.78
2023-09-06T15:27:43.099Z,5.85
2023-09-06T15:30:09.774Z,4.63
2023-09-06T15:32:36.386Z,4.28
2023-09-06T15:35:03.359Z,6.47
2023-09-06T15:37:30.035Z,5.03
2023-09-06T15:39:56.606Z,4.32
2023-09-06T15:42:23.206Z,4.35
2023-09-06T15:44:49.629Z,4.45
2023-09-06T15:47:16.153Z,5.85
2023-09-06T15:49:44.310Z,5.13
2023-09-06T15:52:10.738Z,5.05
2023-09-06T15:54:37.162Z,4.28
2023-09-06T15:57:03.736Z,4.47
2023-09-06T15:59:30.941Z,3.85
2023-09-06T16:01:57.555Z,4.10
2023-09-06T16:04:24.085Z,4.18
2023-09-06T16:06:50.716Z,4.65
2023-09-06T16:09:17.236Z,4.50
2023-09-06T16:11:43.780Z,6.72
2023-09-06T16:14:10.159Z,6.45
2023-09-06T16:16:37.509Z,4.07
2023-09-06T16:19:04.057Z,5.45
2023-09-06T16:21:33.882Z,4.65
2023-09-06T16:24:03.365Z,4.78
2023-09-06T16:26:29.991Z,7.63
2023-09-06T16:28:56.510Z,5.25
2023-09-06T16:31:23.725Z,7.47
2023-09-06T16:33:50.326Z,5.43
2023-09-06T16:36:16.802Z,4.95
2023-09-06T16:38:43.297Z,7.05
2023-09-06T16:41:10.652Z,4.78
2023-09-06T16:43:38.404Z,5.13
2023-09-06T16:46:05.937Z,5.00
2023-09-06T16:48:33.483Z,4.50
2023-09-06T16:51:00.437Z,5.45
2023-09-06T16:53:26.942Z,5.63
2023-09-06T16:55:53.514Z,5.53
2023-09-06T16:58:19.942Z,5.50
2023-09-06T17:00:46.820Z,4.80
2023-09-06T17:03:13.319Z,6.22
2023-09-06T17:05:39.932Z,5.57
2023-09-06T17:08:07.508Z,6.78
2023-09-06T17:10:35.724Z,7.40
2023-09-06T17:13:03.104Z,6.20
2023-09-06T17:15:29.670Z,5.85
2023-09-06T17:17:56.203Z,5.47
2023-09-06T17:20:27.422Z,7.53
2023-09-06T17:22:58.605Z,7.10
2023-09-06T17:25:26.649Z,5.63
2023-09-06T17:27:54.558Z,5.70
2023-09-06T17:30:23.337Z,8.15
2023-09-06T17:33:02.842Z,6.00
2023-09-06T17:35:32.124Z,6.30
2023-09-06T17:38:00.927Z,6.38
2023-09-06T17:40:29.586Z,6.28
2023-09-06T17:42:56.235Z,5.75
2023-09-06T17:45:22.701Z,6.05
2023-09-06T17:47:49.393Z,5.95
2023-09-06T17:50:18.858Z,6.13
2023-09-06T17:52:46.841Z,6.80
2023-09-06T17:55:15.185Z,6.10
2023-09-06T17:57:42.896Z,7.25
2023-09-06T18:00:16.856Z,6.88
2023-09-06T18:02:45.292Z,6.63
2023-09-06T18:05:14.856Z,7.32
2023-09-06T18:07:41.618Z,7.90
2023-09-06T18:10:08.378Z,7.43
2023-09-06T18:12:34.891Z,7.20
2023-09-06T18:15:03.240Z,5.97
2023-09-06T18:17:31.423Z,6.43
2023-09-06T18:19:58.624Z,7.60
2023-09-06T18:22:25.180Z,6.88
2023-09-06T18:24:51.958Z,6.78
2023-09-06T18:27:18.793Z,7.13
2023-09-06T18:29:45.291Z,6.85
2023-09-06T18:32:11.882Z,7.38
2023-09-06T18:34:38.364Z,7.75
2023-09-06T18:37:09.431Z,6.90
2023-09-06T18:39:36.295Z,6.47
2023-09-06T18:42:02.706Z,6.57
2023-09-06T18:44:29.211Z,6.95
2023-09-06T18:46:55.813Z,7.88
2023-09-06T18:49:22.261Z,8.40
2023-09-06T18:51:48.929Z,8.52
2023-09-06T18:54:15.337Z,7.93
2023-09-06T18:56:41.807Z,7.60
2023-09-06T18:59:10.142Z,7.90
2023-09-06T19:01:37.045Z,7.80
2023-09-06T19:04:05.204Z,6.97
2023-09-06T19:06:35.509Z,8.15
2023-09-06T19:11:29.025Z,7.30
2023-09-06T19:13:55.702Z,7.05
2023-09-06T19:16:25.745Z,7.60
2023-09-06T19:18:52.195Z,8.68
2023-09-06T19:21:18.706Z,8.57
2023-09-06T19:23:46.129Z,8.93
2023-09-06T19:26:12.607Z,10.68
2023-09-06T19:28:39.165Z,10.32
2023-09-06T19:31:06.657Z,8.20
2023-09-06T19:33:37.252Z,8.07
2023-09-06T19:36:03.904Z,7.45
2023-09-06T19:38:31.423Z,7.65
2023-09-06T19:40:58.419Z,8.18
2023-09-06T19:43:25.343Z,8.00
2023-09-06T19:45:55.480Z,7.72
2023-09-06T19:48:22.455Z,8.32
2023-09-06T19:50:49.411Z,8.35
2023-09-06T19:53:15.853Z,8.02
2023-09-06T19:55:43.731Z,8.63
2023-09-06T19:58:11.857Z,8.52
2023-09-06T20:00:38.339Z,8.50
2023-09-06T20:03:04.987Z,7.70
2023-09-06T20:05:31.607Z,8.07
2023-09-06T20:07:58.338Z,8.35
2023-09-06T20:10:27.769Z,8.05
2023-09-06T20:12:54.199Z,8.25
2023-09-06T20:15:20.632Z,7.95
2023-09-06T20:17:47.198Z,7.80
2023-09-06T20:20:13.831Z,8.05
2023-09-06T20:22:40.284Z,8.82
2023-09-06T20:25:06.916Z,8.45
2023-09-06T20:27:33.337Z,7.45
2023-09-06T20:29:59.877Z,8.10
2023-09-06T20:32:26.423Z,7.88
2023-09-06T20:34:52.871Z,7.55
2023-09-06T20:37:19.339Z,8.80
2023-09-06T20:39:45.803Z,9.65
2023-09-06T20:42:12.292Z,8.10
2023-09-06T20:44:38.743Z,8.90
2023-09-06T20:47:05.533Z,8.73
2023-09-06T20:49:32.255Z,8.65
2023-09-06T20:51:58.972Z,8.35
2023-09-06T20:54:25.629Z,8.30
2023-09-06T20:56:54.788Z,8.40
2023-09-06T20:59:21.250Z,8.23
2023-09-06T21:01:47.798Z,8.13
2023-09-06T21:04:14.470Z,8.70
2023-09-06T21:06:41.137Z,8.13
2023-09-06T21:09:07.614Z,8.68
2023-09-06T21:11:34.184Z,8.52
2023-09-06T21:14:00.579Z,9.27
2023-09-06T21:16:27.034Z,9.50
2023-09-06T21:18:53.483Z,9.40
2023-09-06T21:21:20.030Z,9.50
2023-09-06T21:23:46.470Z,8.50
2023-09-06T21:26:12.887Z,9.40
2023-09-06T21:28:39.320Z,9.52
2023-09-06T21:31:05.809Z,9.65
2023-09-06T21:33:33.264Z,9.50
2023-09-06T21:35:59.863Z,9.77
2023-09-06T21:38:26.305Z,9.82
2023-09-06T21:40:52.800Z,9.45
2023-09-06T21:43:20.066Z,9.70
2023-09-06T21:46:03.483Z,8.82
2023-09-06T21:48:30.217Z,9.57
2023-09-06T21:51:08.003Z,10.02
2023-09-06T21:53:34.564Z,9.60
2023-09-06T21:56:01.048Z,9.75
2023-09-06T21:58:27.537Z,9.73
2023-09-06T22:00:54.568Z,9.35
2023-09-06T22:03:21.513Z,9.85
2023-09-06T22:05:49.245Z,9.85
2023-09-06T22:08:16.171Z,9.63
2023-09-06T22:10:42.605Z,9.95
2023-09-06T22:13:09.085Z,9.77
2023-09-06T22:15:35.663Z,9.75
2023-09-06T22:18:02.268Z,9.65
2023-09-06T22:20:31.425Z,10.48
2023-09-06T22:22:58.443Z,9.57
2023-09-06T22:25:24.917Z,11.10
2023-09-06T22:27:51.556Z,9.98
2023-09-06T22:30:18.079Z,9.63
2023-09-06T22:32:44.599Z,9.65
2023-09-06T22:35:11.160Z,9.00
2023-09-06T22:37:39.205Z,10.05
2023-09-06T22:40:06.218Z,8.95
2023-09-06T22:42:32.708Z,9.95
2023-09-06T22:44:59.195Z,10.10
2023-09-06T22:47:25.739Z,9.77
2023-09-06T22:49:52.254Z,10.25
2023-09-06T22:52:18.886Z,9.57
2023-09-06T22:54:45.339Z,10.07
2023-09-06T22:57:11.779Z,10.63
2023-09-06T22:59:38.176Z,9.63
2023-09-06T23:02:04.795Z,9.80
2023-09-06T23:04:34.577Z,9.82
2023-09-06T23:07:02.031Z,9.55
2023-09-06T23:09:28.483Z,9.20
2023-09-06T23:11:57.260Z,9.85
2023-09-06T23:14:24.809Z,10.52
2023-09-06T23:16:52.268Z,10.30
2023-09-06T23:19:25.693Z,10.50
2023-09-06T23:21:56.198Z,10.65
2023-09-06T23:24:23.762Z,10.38
2023-09-06T23:26:58.025Z,10.13
2023-09-06T23:29:26.966Z,9.15
2023-09-06T23:32:00.140Z,9.63
2023-09-06T23:34:30.946Z,9.93
2023-09-06T23:36:59.174Z,10.35
2023-09-06T23:39:29.358Z,10.68
2023-09-06T23:41:57.649Z,10.07
2023-09-06T23:44:25.135Z,9.63
2023-09-06T23:46:51.849Z,9.85
2023-09-06T23:49:21.143Z,9.82
2023-09-06T23:51:48.264Z,9.95
2023-09-06T23:54:15.114Z,10.32
2023-09-06T23:56:41.802Z,9.90
2023-09-06T23:59:08.231Z,10.20
